Almond, North Carolina
Current Conditions -  °F | °C
As of 8:35 PM on Thursday 27 Nov 2014 (Local Time) from KRHP Reporting Station
Overcast Overcast  
Wind Chill: 28°   Ceiling: 2700
Heat Index: 32°   Visibility: 10mi
Dew Point: 26°   Wind: 5mph
Humidity: 76%   Direction: 80°E
Pressure: 30.32"   Gusts: NA
Location:  35.37°N, 83.57°W
Report Text: KRHP 280135Z AUTO 08004KT 10SM BKN027 BKN035 OVC041 00/M03 A3032 RMK AO2 T00021035
Loading
Personal Weather Stations






























Interactive Weather Map New forecast layout! Learn more

10-Day Weather Forecast

Advertisements
Track Severe Weather on mobile